VTK225 UNBG-UNAA
Flight info
| Callsign | VTK225 |
|---|---|
| Flight time | 0h 40m |
| Altitude | 29000 |
| Route | N0450F290 OBIDI W915 NOSPI R241 KERAL |
| Aircraft | B738/M-VGDW/C |
Departure
| Time | 2026-04-23 00:09 |
|---|---|
| Airport | Gorno-Altaysk Airport (UNBG) |
Arrival
| Time | 2026-04-23 00:50 |
|---|---|
| Airport | Abakan International Airport (UNAA) |
| Time | Latitude | Longitude | Altitude | Speed | Heading |
|---|---|---|---|---|---|
| 2026-04-22 23:55 | 51.96854 | 85.83971 | 947 ft | 0 kts | 294° |
| 2026-04-23 00:04 | 51.96854 | 85.83970 | 951 ft | 1 kts | 294° |
| 2026-04-23 00:05 | 51.96861 | 85.83945 | 946 ft | 5 kts | 292° |
| 2026-04-23 00:05 | 51.96847 | 85.83889 | 943 ft | 6 kts | 211° |
| 2026-04-23 00:05 | 51.96808 | 85.83850 | 944 ft | 7 kts | 231° |
| 2026-04-23 00:05 | 51.96796 | 85.83767 | 942 ft | 9 kts | 264° |
| 2026-04-23 00:06 | 51.96790 | 85.83640 | 943 ft | 12 kts | 265° |
| 2026-04-23 00:06 | 51.96764 | 85.83536 | 941 ft | 12 kts | 215° |
| 2026-04-23 00:06 | 51.96672 | 85.83464 | 942 ft | 18 kts | 205° |
| 2026-04-23 00:06 | 51.96539 | 85.83362 | 939 ft | 24 kts | 205° |
| 2026-04-23 00:07 | 51.96384 | 85.83247 | 941 ft | 24 kts | 204° |
| 2026-04-23 00:07 | 51.96240 | 85.83135 | 949 ft | 23 kts | 206° |
| 2026-04-23 00:07 | 51.96102 | 85.83028 | 948 ft | 18 kts | 205° |
| 2026-04-23 00:07 | 51.96031 | 85.83003 | 949 ft | 9 kts | 165° |
| 2026-04-23 00:08 | 51.95989 | 85.82979 | 948 ft | 8 kts | 272° |
| 2026-04-23 00:08 | 51.96025 | 85.82969 | 947 ft | 5 kts | 24° |
| 2026-04-23 00:08 | 51.96029 | 85.82973 | 947 ft | 0 kts | 25° |
| 2026-04-23 00:08 | 51.96125 | 85.83045 | 950 ft | 49 kts | 25° |
| 2026-04-23 00:09 | 51.96669 | 85.83462 | 944 ft | 122 kts | 25° |
| 2026-04-23 00:09 | 51.97615 | 85.84199 | 1066 ft | 171 kts | 27° |
| 2026-04-23 00:09 | 51.98714 | 85.85070 | 1803 ft | 178 kts | 27° |
| 2026-04-23 00:09 | 51.99848 | 85.85947 | 2545 ft | 187 kts | 25° |
| 2026-04-23 00:10 | 52.01096 | 85.86902 | 3076 ft | 214 kts | 24° |
| 2026-04-23 00:10 | 52.02539 | 85.88011 | 3318 ft | 243 kts | 24° |
| 2026-04-23 00:10 | 52.04130 | 85.89248 | 3671 ft | 265 kts | 26° |
| 2026-04-23 00:10 | 52.05782 | 85.90732 | 4230 ft | 279 kts | 28° |
| 2026-04-23 00:11 | 52.07464 | 85.92333 | 5227 ft | 279 kts | 29° |
| 2026-04-23 00:11 | 52.09133 | 85.93936 | 6241 ft | 279 kts | 29° |
| 2026-04-23 00:11 | 52.10821 | 85.95555 | 7115 ft | 283 kts | 28° |
| 2026-04-23 00:11 | 52.12535 | 85.97193 | 7984 ft | 287 kts | 28° |
| 2026-04-23 00:12 | 52.14273 | 85.98848 | 8836 ft | 291 kts | 28° |
| 2026-04-23 00:12 | 52.16040 | 86.00528 | 9723 ft | 295 kts | 28° |
| 2026-04-23 00:12 | 52.17812 | 86.02212 | 10426 ft | 304 kts | 28° |
| 2026-04-23 00:12 | 52.19718 | 86.04017 | 10650 ft | 330 kts | 28° |
| 2026-04-23 00:13 | 52.21788 | 86.05978 | 10946 ft | 351 kts | 28° |
| 2026-04-23 00:13 | 52.23935 | 86.08017 | 11584 ft | 360 kts | 28° |
| 2026-04-23 00:13 | 52.26111 | 86.10089 | 12376 ft | 364 kts | 28° |
| 2026-04-23 00:13 | 52.28311 | 86.12186 | 13184 ft | 367 kts | 28° |
| 2026-04-23 00:14 | 52.30509 | 86.14282 | 13897 ft | 372 kts | 27° |
| 2026-04-23 00:14 | 52.32767 | 86.16437 | 14593 ft | 376 kts | 27° |
| 2026-04-23 00:14 | 52.35034 | 86.18602 | 15314 ft | 379 kts | 27° |
| 2026-04-23 00:14 | 52.37328 | 86.20796 | 16026 ft | 382 kts | 27° |
| 2026-04-23 00:15 | 52.39633 | 86.23002 | 16725 ft | 386 kts | 26° |
| 2026-04-23 00:15 | 52.41934 | 86.25206 | 17398 ft | 389 kts | 26° |
| 2026-04-23 00:15 | 52.44287 | 86.27464 | 18075 ft | 393 kts | 26° |
| 2026-04-23 00:15 | 52.46656 | 86.29740 | 18683 ft | 396 kts | 26° |
| 2026-04-23 00:16 | 52.49052 | 86.32045 | 19293 ft | 399 kts | 26° |
| 2026-04-23 00:16 | 52.51451 | 86.34356 | 19899 ft | 401 kts | 26° |
| 2026-04-23 00:16 | 52.53836 | 86.36656 | 20498 ft | 403 kts | 25° |
| 2026-04-23 00:16 | 52.56266 | 86.39003 | 21093 ft | 405 kts | 25° |
| 2026-04-23 00:17 | 52.58710 | 86.41367 | 21682 ft | 408 kts | 25° |
| 2026-04-23 00:17 | 52.61168 | 86.43747 | 22252 ft | 410 kts | 25° |
| 2026-04-23 00:17 | 52.63641 | 86.46146 | 22807 ft | 413 kts | 25° |
| 2026-04-23 00:17 | 52.66096 | 86.48529 | 23344 ft | 416 kts | 25° |
| 2026-04-23 00:18 | 52.68599 | 86.50962 | 23823 ft | 418 kts | 25° |
| 2026-04-23 00:18 | 52.71119 | 86.53414 | 24277 ft | 420 kts | 25° |
| 2026-04-23 00:18 | 52.73517 | 86.56161 | 24644 ft | 433 kts | 37° |
| 2026-04-23 00:18 | 52.75536 | 86.59961 | 24995 ft | 447 kts | 52° |
| 2026-04-23 00:19 | 52.76962 | 86.64593 | 25419 ft | 457 kts | 65° |
| 2026-04-23 00:19 | 52.78050 | 86.69537 | 25856 ft | 459 kts | 66° |
| 2026-04-23 00:19 | 52.79100 | 86.74557 | 26225 ft | 463 kts | 67° |
| 2026-04-23 00:19 | 52.80146 | 86.79610 | 26590 ft | 466 kts | 67° |
| 2026-04-23 00:20 | 52.81194 | 86.84636 | 26957 ft | 469 kts | 67° |
| 2026-04-23 00:20 | 52.82270 | 86.89738 | 27327 ft | 471 kts | 67° |
| 2026-04-23 00:20 | 52.83365 | 86.94872 | 27703 ft | 473 kts | 66° |
| 2026-04-23 00:20 | 52.84468 | 87.00019 | 28175 ft | 473 kts | 66° |
| 2026-04-23 00:21 | 52.85569 | 87.05148 | 28736 ft | 471 kts | 66° |
| 2026-04-23 00:21 | 52.86669 | 87.10269 | 28873 ft | 475 kts | 66° |
| 2026-04-23 00:21 | 52.87766 | 87.15381 | 28879 ft | 474 kts | 66° |
| 2026-04-23 00:22 | 52.89947 | 87.25613 | 28882 ft | 468 kts | 66° |
| 2026-04-23 00:22 | 52.92104 | 87.35772 | 28900 ft | 470 kts | 66° |
| 2026-04-23 00:23 | 52.94271 | 87.46032 | 28914 ft | 471 kts | 66° |
| 2026-04-23 00:23 | 52.96431 | 87.56318 | 28919 ft | 472 kts | 66° |
| 2026-04-23 00:24 | 52.98581 | 87.66609 | 28937 ft | 471 kts | 66° |
| 2026-04-23 00:24 | 53.00705 | 87.76834 | 28923 ft | 469 kts | 66° |
| 2026-04-23 00:25 | 53.02822 | 87.87072 | 28941 ft | 467 kts | 66° |
| 2026-04-23 00:25 | 53.04923 | 87.97284 | 28982 ft | 466 kts | 66° |
| 2026-04-23 00:26 | 53.07002 | 88.07438 | 28965 ft | 466 kts | 66° |
| 2026-04-23 00:26 | 53.09085 | 88.17667 | 28982 ft | 466 kts | 66° |
| 2026-04-23 00:27 | 53.11148 | 88.27845 | 28976 ft | 466 kts | 66° |
| 2026-04-23 00:27 | 53.13214 | 88.38096 | 28987 ft | 467 kts | 67° |
| 2026-04-23 00:28 | 53.15257 | 88.48304 | 28668 ft | 457 kts | 66° |
| 2026-04-23 00:28 | 53.16238 | 88.53228 | 28256 ft | 450 kts | 66° |
| 2026-04-23 00:28 | 53.17219 | 88.58160 | 27822 ft | 444 kts | 66° |
| 2026-04-23 00:28 | 53.18186 | 88.63023 | 27362 ft | 440 kts | 66° |
| 2026-04-23 00:29 | 53.19143 | 88.67845 | 26885 ft | 436 kts | 66° |
| 2026-04-23 00:29 | 53.20091 | 88.72635 | 26423 ft | 432 kts | 66° |
| 2026-04-23 00:29 | 53.21018 | 88.77334 | 25979 ft | 428 kts | 67° |
| 2026-04-23 00:29 | 53.21945 | 88.82039 | 25546 ft | 425 kts | 67° |
| 2026-04-23 00:30 | 53.22865 | 88.86721 | 25100 ft | 422 kts | 67° |
| 2026-04-23 00:30 | 53.23779 | 88.91382 | 24648 ft | 419 kts | 67° |
| 2026-04-23 00:30 | 53.24679 | 88.95987 | 24212 ft | 415 kts | 67° |
| 2026-04-23 00:30 | 53.25602 | 89.00506 | 23897 ft | 409 kts | 65° |
| 2026-04-23 00:31 | 53.26568 | 89.04971 | 23434 ft | 407 kts | 65° |
| 2026-04-23 00:31 | 53.27536 | 89.09357 | 22947 ft | 404 kts | 65° |
| 2026-04-23 00:31 | 53.28507 | 89.13753 | 22485 ft | 403 kts | 65° |
| 2026-04-23 00:31 | 53.29473 | 89.18156 | 22049 ft | 403 kts | 65° |
| 2026-04-23 00:32 | 53.30432 | 89.22554 | 21585 ft | 402 kts | 65° |
| 2026-04-23 00:32 | 53.31383 | 89.26950 | 21158 ft | 399 kts | 66° |
| 2026-04-23 00:32 | 53.32308 | 89.31247 | 20718 ft | 395 kts | 66° |
| 2026-04-23 00:32 | 53.33234 | 89.35568 | 20284 ft | 392 kts | 66° |
| 2026-04-23 00:33 | 53.34152 | 89.39855 | 19859 ft | 389 kts | 66° |
| 2026-04-23 00:33 | 53.35063 | 89.44125 | 19417 ft | 387 kts | 67° |
| 2026-04-23 00:33 | 53.35953 | 89.48301 | 19007 ft | 384 kts | 67° |
| 2026-04-23 00:33 | 53.36847 | 89.52502 | 18588 ft | 382 kts | 67° |
| 2026-04-23 00:34 | 53.37734 | 89.56684 | 18140 ft | 380 kts | 68° |
| 2026-04-23 00:34 | 53.38619 | 89.60863 | 17659 ft | 378 kts | 68° |
| 2026-04-23 00:34 | 53.39492 | 89.64997 | 17212 ft | 375 kts | 68° |
| 2026-04-23 00:34 | 53.40358 | 89.69107 | 16782 ft | 372 kts | 68° |
| 2026-04-23 00:35 | 53.41205 | 89.73130 | 16377 ft | 369 kts | 68° |
| 2026-04-23 00:35 | 53.42054 | 89.77170 | 15961 ft | 366 kts | 68° |
| 2026-04-23 00:35 | 53.42897 | 89.81194 | 15546 ft | 364 kts | 68° |
| 2026-04-23 00:35 | 53.43732 | 89.85187 | 15136 ft | 362 kts | 68° |
| 2026-04-23 00:36 | 53.44564 | 89.89167 | 14731 ft | 360 kts | 68° |
| 2026-04-23 00:36 | 53.45382 | 89.93093 | 14320 ft | 358 kts | 68° |
| 2026-04-23 00:36 | 53.46201 | 89.97033 | 13914 ft | 356 kts | 68° |
| 2026-04-23 00:36 | 53.47014 | 90.00948 | 13503 ft | 354 kts | 68° |
| 2026-04-23 00:37 | 53.47822 | 90.04845 | 13054 ft | 352 kts | 68° |
| 2026-04-23 00:37 | 53.48613 | 90.08667 | 12637 ft | 349 kts | 68° |
| 2026-04-23 00:37 | 53.49404 | 90.12501 | 12237 ft | 346 kts | 68° |
| 2026-04-23 00:37 | 53.50185 | 90.16303 | 11871 ft | 343 kts | 68° |
| 2026-04-23 00:38 | 53.50950 | 90.20080 | 11554 ft | 338 kts | 68° |
| 2026-04-23 00:38 | 53.51690 | 90.23774 | 11333 ft | 332 kts | 68° |
| 2026-04-23 00:38 | 53.52431 | 90.27469 | 10966 ft | 334 kts | 68° |
| 2026-04-23 00:38 | 53.53174 | 90.31183 | 10629 ft | 333 kts | 68° |
| 2026-04-23 00:39 | 53.53890 | 90.34770 | 10503 ft | 322 kts | 68° |
| 2026-04-23 00:39 | 53.54591 | 90.38290 | 10360 ft | 313 kts | 68° |
| 2026-04-23 00:39 | 53.55273 | 90.41716 | 10224 ft | 304 kts | 68° |
| 2026-04-23 00:39 | 53.55934 | 90.45041 | 10097 ft | 296 kts | 68° |
| 2026-04-23 00:40 | 53.56581 | 90.48295 | 9860 ft | 291 kts | 68° |
| 2026-04-23 00:40 | 53.57223 | 90.51525 | 9571 ft | 290 kts | 68° |
| 2026-04-23 00:40 | 53.57851 | 90.54693 | 9282 ft | 287 kts | 68° |
| 2026-04-23 00:40 | 53.58482 | 90.57878 | 9001 ft | 285 kts | 68° |
| 2026-04-23 00:41 | 53.59108 | 90.61047 | 8708 ft | 284 kts | 68° |
| 2026-04-23 00:41 | 53.59729 | 90.64201 | 8422 ft | 283 kts | 69° |
| 2026-04-23 00:41 | 53.60285 | 90.67342 | 8142 ft | 284 kts | 77° |
| 2026-04-23 00:41 | 53.60490 | 90.70656 | 7886 ft | 283 kts | 85° |
| 2026-04-23 00:42 | 53.60572 | 90.73966 | 7610 ft | 283 kts | 86° |
| 2026-04-23 00:42 | 53.60640 | 90.77277 | 7329 ft | 282 kts | 86° |
| 2026-04-23 00:42 | 53.60718 | 90.80578 | 7040 ft | 281 kts | 86° |
| 2026-04-23 00:42 | 53.60804 | 90.83822 | 6771 ft | 280 kts | 86° |
| 2026-04-23 00:43 | 53.60899 | 90.87098 | 6492 ft | 279 kts | 86° |
| 2026-04-23 00:43 | 53.60998 | 90.90363 | 6193 ft | 278 kts | 86° |
| 2026-04-23 00:43 | 53.61100 | 90.93613 | 5893 ft | 276 kts | 86° |
| 2026-04-23 00:43 | 53.61201 | 90.96802 | 5626 ft | 275 kts | 86° |
| 2026-04-23 00:44 | 53.61303 | 91.00024 | 5362 ft | 273 kts | 87° |
| 2026-04-23 00:44 | 53.61401 | 91.03182 | 5241 ft | 266 kts | 87° |
| 2026-04-23 00:44 | 53.61497 | 91.06262 | 5106 ft | 260 kts | 87° |
| 2026-04-23 00:44 | 53.61582 | 91.09230 | 4989 ft | 253 kts | 90° |
| 2026-04-23 00:45 | 53.61207 | 91.12075 | 4760 ft | 249 kts | 117° |
| 2026-04-23 00:45 | 53.60454 | 91.14684 | 4531 ft | 248 kts | 117° |
| 2026-04-23 00:45 | 53.59728 | 91.17316 | 4279 ft | 247 kts | 116° |
| 2026-04-23 00:45 | 53.59021 | 91.19906 | 4099 ft | 240 kts | 116° |
| 2026-04-23 00:46 | 53.58342 | 91.22464 | 3871 ft | 236 kts | 110° |
| 2026-04-23 00:46 | 53.58237 | 91.25117 | 3591 ft | 231 kts | 73° |
| 2026-04-23 00:46 | 53.59144 | 91.27234 | 3376 ft | 223 kts | 32° |
| 2026-04-23 00:46 | 53.60556 | 91.28088 | 3318 ft | 209 kts | 17° |
| 2026-04-23 00:47 | 53.61848 | 91.29065 | 3162 ft | 198 kts | 30° |
| 2026-04-23 00:47 | 53.63061 | 91.30049 | 2910 ft | 193 kts | 24° |
| 2026-04-23 00:47 | 53.64261 | 91.30941 | 2653 ft | 182 kts | 25° |
| 2026-04-23 00:47 | 53.65378 | 91.31802 | 2462 ft | 170 kts | 25° |
| 2026-04-23 00:48 | 53.66401 | 91.32599 | 2262 ft | 155 kts | 26° |
| 2026-04-23 00:48 | 53.67356 | 91.33344 | 2063 ft | 149 kts | 26° |
| 2026-04-23 00:48 | 53.68291 | 91.34073 | 1866 ft | 150 kts | 25° |
| 2026-04-23 00:48 | 53.69241 | 91.34813 | 1661 ft | 151 kts | 25° |
| 2026-04-23 00:49 | 53.70190 | 91.35552 | 1461 ft | 149 kts | 25° |
| 2026-04-23 00:49 | 53.71132 | 91.36286 | 1281 ft | 148 kts | 25° |
| 2026-04-23 00:49 | 53.72071 | 91.37017 | 1091 ft | 149 kts | 25° |
| 2026-04-23 00:49 | 53.73017 | 91.37749 | 886 ft | 150 kts | 25° |
| 2026-04-23 00:50 | 53.73914 | 91.38454 | 824 ft | 134 kts | 25° |
| 2026-04-23 00:50 | 53.74576 | 91.38961 | 822 ft | 44 kts | 24° |
| 2026-04-23 00:50 | 53.74789 | 91.39125 | 822 ft | 31 kts | 25° |
| 2026-04-23 00:50 | 53.74939 | 91.39242 | 823 ft | 16 kts | 25° |
| 2026-04-23 00:51 | 53.75008 | 91.39304 | 822 ft | 9 kts | 51° |
| 2026-04-23 00:51 | 53.74994 | 91.39398 | 821 ft | 9 kts | 114° |
| 2026-04-23 00:51 | 53.74969 | 91.39488 | 822 ft | 8 kts | 115° |
| 2026-04-23 00:51 | 53.74945 | 91.39575 | 823 ft | 8 kts | 115° |
| 2026-04-23 00:52 | 53.74921 | 91.39658 | 821 ft | 8 kts | 115° |
| 2026-04-23 00:52 | 53.74917 | 91.39744 | 821 ft | 8 kts | 73° |
| 2026-04-23 00:52 | 53.74930 | 91.39819 | 821 ft | 4 kts | 73° |
| 2026-04-23 00:52 | 53.74931 | 91.39824 | 821 ft | 0 kts | 73° |
| 2026-04-23 00:53 | 53.74930 | 91.39831 | 821 ft | 2 kts | 97° |
| 2026-04-23 00:53 | 53.74891 | 91.39871 | 823 ft | 6 kts | 160° |
| 2026-04-23 00:53 | 53.74874 | 91.39880 | 823 ft | 0 kts | 162° |